sensor_id;sensor_type;location;lat;lon;timestamp;temperature;humidity
25871;DHT22;13689;48.590;7.752;2023-07-13T00:01:46;25.20;44.50
25871;DHT22;13689;48.590;7.752;2023-07-13T00:04:18;25.20;44.40
25871;DHT22;13689;48.590;7.752;2023-07-13T00:06:46;25.10;44.50
25871;DHT22;13689;48.590;7.752;2023-07-13T00:09:13;24.90;44.70
25871;DHT22;13689;48.590;7.752;2023-07-13T00:11:39;24.90;44.90
25871;DHT22;13689;48.590;7.752;2023-07-13T00:14:06;24.80;44.90
25871;DHT22;13689;48.590;7.752;2023-07-13T00:16:34;24.90;44.90
25871;DHT22;13689;48.590;7.752;2023-07-13T00:18:59;24.80;44.80
25871;DHT22;13689;48.590;7.752;2023-07-13T00:21:26;24.80;44.80
25871;DHT22;13689;48.590;7.752;2023-07-13T00:23:51;24.70;44.80
25871;DHT22;13689;48.590;7.752;2023-07-13T00:26:17;24.80;45.10
25871;DHT22;13689;48.590;7.752;2023-07-13T00:28:42;24.70;45.10
25871;DHT22;13689;48.590;7.752;2023-07-13T00:31:10;24.70;45.30
25871;DHT22;13689;48.590;7.752;2023-07-13T00:33:36;24.70;45.40
25871;DHT22;13689;48.590;7.752;2023-07-13T00:36:02;24.60;45.50
25871;DHT22;13689;48.590;7.752;2023-07-13T00:38:28;24.60;45.50
25871;DHT22;13689;48.590;7.752;2023-07-13T00:40:54;24.50;45.50
25871;DHT22;13689;48.590;7.752;2023-07-13T00:43:21;24.30;45.60
25871;DHT22;13689;48.590;7.752;2023-07-13T00:48:18;24.20;46.00
25871;DHT22;13689;48.590;7.752;2023-07-13T00:50:48;24.20;46.10
25871;DHT22;13689;48.590;7.752;2023-07-13T00:53:15;24.20;46.20
25871;DHT22;13689;48.590;7.752;2023-07-13T00:55:41;24.20;46.30
25871;DHT22;13689;48.590;7.752;2023-07-13T00:58:07;24.20;46.30
25871;DHT22;13689;48.590;7.752;2023-07-13T01:00:35;24.20;46.40
25871;DHT22;13689;48.590;7.752;2023-07-13T01:03:02;24.10;46.50
25871;DHT22;13689;48.590;7.752;2023-07-13T01:05:30;24.20;46.60
25871;DHT22;13689;48.590;7.752;2023-07-13T01:07:57;24.20;46.70
25871;DHT22;13689;48.590;7.752;2023-07-13T01:10:24;24.20;46.80
25871;DHT22;13689;48.590;7.752;2023-07-13T01:12:50;24.20;46.80
25871;DHT22;13689;48.590;7.752;2023-07-13T01:15:40;24.20;46.70
25871;DHT22;13689;48.590;7.752;2023-07-13T01:18:09;24.20;46.80
25871;DHT22;13689;48.590;7.752;2023-07-13T01:20:36;24.10;46.80
25871;DHT22;13689;48.590;7.752;2023-07-13T01:23:08;23.90;46.90
25871;DHT22;13689;48.590;7.752;2023-07-13T01:25:35;23.80;47.10
25871;DHT22;13689;48.590;7.752;2023-07-13T01:28:03;23.70;47.20
25871;DHT22;13689;48.590;7.752;2023-07-13T01:30:29;23.70;47.30
25871;DHT22;13689;48.590;7.752;2023-07-13T01:32:55;23.70;47.30
25871;DHT22;13689;48.590;7.752;2023-07-13T01:35:20;23.70;47.40
25871;DHT22;13689;48.590;7.752;2023-07-13T01:37:46;23.70;47.50
25871;DHT22;13689;48.590;7.752;2023-07-13T01:40:12;23.70;47.70
25871;DHT22;13689;48.590;7.752;2023-07-13T01:42:38;23.70;47.80
25871;DHT22;13689;48.590;7.752;2023-07-13T01:45:04;23.70;47.80
25871;DHT22;13689;48.590;7.752;2023-07-13T01:47:30;23.60;47.90
25871;DHT22;13689;48.590;7.752;2023-07-13T01:49:57;23.60;48.10
25871;DHT22;13689;48.590;7.752;2023-07-13T01:52:22;23.50;48.20
25871;DHT22;13689;48.590;7.752;2023-07-13T01:54:48;23.50;48.30
25871;DHT22;13689;48.590;7.752;2023-07-13T01:57:13;23.50;48.40
25871;DHT22;13689;48.590;7.752;2023-07-13T01:59:39;23.50;48.50
25871;DHT22;13689;48.590;7.752;2023-07-13T02:02:05;23.40;48.60
25871;DHT22;13689;48.590;7.752;2023-07-13T02:04:30;23.30;48.70
25871;DHT22;13689;48.590;7.752;2023-07-13T02:06:56;23.20;48.80
25871;DHT22;13689;48.590;7.752;2023-07-13T02:09:21;23.20;49.00
25871;DHT22;13689;48.590;7.752;2023-07-13T02:11:47;23.10;49.10
25871;DHT22;13689;48.590;7.752;2023-07-13T02:14:14;23.00;49.30
25871;DHT22;13689;48.590;7.752;2023-07-13T02:16:41;23.00;49.50
25871;DHT22;13689;48.590;7.752;2023-07-13T02:19:07;23.00;49.50
25871;DHT22;13689;48.590;7.752;2023-07-13T02:21:33;23.00;49.50
25871;DHT22;13689;48.590;7.752;2023-07-13T02:23:58;23.10;49.60
25871;DHT22;13689;48.590;7.752;2023-07-13T02:26:25;23.10;49.50
25871;DHT22;13689;48.590;7.752;2023-07-13T02:28:51;23.00;49.50
25871;DHT22;13689;48.590;7.752;2023-07-13T02:31:17;23.00;49.80
25871;DHT22;13689;48.590;7.752;2023-07-13T02:33:42;22.90;49.70
25871;DHT22;13689;48.590;7.752;2023-07-13T02:36:09;22.90;49.80
25871;DHT22;13689;48.590;7.752;2023-07-13T02:38:35;22.90;49.90
25871;DHT22;13689;48.590;7.752;2023-07-13T02:41:05;22.90;50.00
25871;DHT22;13689;48.590;7.752;2023-07-13T02:43:31;23.00;50.00
25871;DHT22;13689;48.590;7.752;2023-07-13T02:45:59;22.90;49.90
25871;DHT22;13689;48.590;7.752;2023-07-13T02:48:30;22.90;49.90
25871;DHT22;13689;48.590;7.752;2023-07-13T02:50:55;22.90;49.90
25871;DHT22;13689;48.590;7.752;2023-07-13T02:53:21;22.80;50.60
25871;DHT22;13689;48.590;7.752;2023-07-13T02:55:46;22.80;50.10
25871;DHT22;13689;48.590;7.752;2023-07-13T02:58:13;22.90;50.10
25871;DHT22;13689;48.590;7.752;2023-07-13T03:00:43;22.90;50.10
25871;DHT22;13689;48.590;7.752;2023-07-13T03:03:09;22.90;50.10
25871;DHT22;13689;48.590;7.752;2023-07-13T03:05:37;22.90;50.20
25871;DHT22;13689;48.590;7.752;2023-07-13T03:08:03;22.80;50.20
25871;DHT22;13689;48.590;7.752;2023-07-13T03:10:29;22.80;50.30
25871;DHT22;13689;48.590;7.752;2023-07-13T03:12:55;22.80;50.40
25871;DHT22;13689;48.590;7.752;2023-07-13T03:15:20;22.80;50.50
25871;DHT22;13689;48.590;7.752;2023-07-13T03:17:46;22.80;50.60
25871;DHT22;13689;48.590;7.752;2023-07-13T03:20:12;22.80;50.70
25871;DHT22;13689;48.590;7.752;2023-07-13T03:22:37;22.80;50.90
25871;DHT22;13689;48.590;7.752;2023-07-13T03:25:04;22.80;51.00
25871;DHT22;13689;48.590;7.752;2023-07-13T03:27:29;22.70;51.10
25871;DHT22;13689;48.590;7.752;2023-07-13T03:29:55;22.60;51.20
25871;DHT22;13689;48.590;7.752;2023-07-13T03:32:21;22.50;51.30
25871;DHT22;13689;48.590;7.752;2023-07-13T03:34:46;22.50;51.40
25871;DHT22;13689;48.590;7.752;2023-07-13T03:37:12;22.40;51.40
25871;DHT22;13689;48.590;7.752;2023-07-13T03:39:37;22.40;51.50
25871;DHT22;13689;48.590;7.752;2023-07-13T03:42:03;22.40;51.60
25871;DHT22;13689;48.590;7.752;2023-07-13T03:44:29;22.40;51.60
25871;DHT22;13689;48.590;7.752;2023-07-13T03:46:54;22.40;51.70
25871;DHT22;13689;48.590;7.752;2023-07-13T03:49:20;22.40;51.60
25871;DHT22;13689;48.590;7.752;2023-07-13T03:51:45;22.40;51.50
25871;DHT22;13689;48.590;7.752;2023-07-13T03:54:11;22.40;51.50
25871;DHT22;13689;48.590;7.752;2023-07-13T03:56:37;22.40;51.40
25871;DHT22;13689;48.590;7.752;2023-07-13T03:59:02;22.40;51.40
25871;DHT22;13689;48.590;7.752;2023-07-13T04:01:28;22.40;51.50
25871;DHT22;13689;48.590;7.752;2023-07-13T04:03:54;22.30;51.60
25871;DHT22;13689;48.590;7.752;2023-07-13T04:06:37;22.30;52.00
25871;DHT22;13689;48.590;7.752;2023-07-13T04:09:04;22.30;52.20
25871;DHT22;13689;48.590;7.752;2023-07-13T04:11:31;22.30;52.30
25871;DHT22;13689;48.590;7.752;2023-07-13T04:13:58;22.30;52.20
25871;DHT22;13689;48.590;7.752;2023-07-13T04:16:24;22.30;52.20
25871;DHT22;13689;48.590;7.752;2023-07-13T04:18:51;22.30;52.30
25871;DHT22;13689;48.590;7.752;2023-07-13T04:21:20;22.20;52.40
25871;DHT22;13689;48.590;7.752;2023-07-13T04:23:46;22.20;52.60
25871;DHT22;13689;48.590;7.752;2023-07-13T04:26:11;22.20;52.70
25871;DHT22;13689;48.590;7.752;2023-07-13T04:28:37;22.20;52.80
25871;DHT22;13689;48.590;7.752;2023-07-13T04:31:03;22.30;52.90
25871;DHT22;13689;48.590;7.752;2023-07-13T04:33:28;22.30;52.80
25871;DHT22;13689;48.590;7.752;2023-07-13T04:35:55;22.40;52.70
25871;DHT22;13689;48.590;7.752;2023-07-13T04:38:27;22.40;53.40
25871;DHT22;13689;48.590;7.752;2023-07-13T04:40:58;22.40;52.80
25871;DHT22;13689;48.590;7.752;2023-07-13T04:43:25;22.40;52.70
25871;DHT22;13689;48.590;7.752;2023-07-13T04:45:51;22.40;52.60
25871;DHT22;13689;48.590;7.752;2023-07-13T04:48:17;22.40;52.60
25871;DHT22;13689;48.590;7.752;2023-07-13T04:50:43;22.50;52.70
25871;DHT22;13689;48.590;7.752;2023-07-13T04:53:09;22.50;52.50
25871;DHT22;13689;48.590;7.752;2023-07-13T04:55:36;22.50;52.60
25871;DHT22;13689;48.590;7.752;2023-07-13T04:58:02;22.50;52.60
25871;DHT22;13689;48.590;7.752;2023-07-13T05:00:28;22.50;52.70
25871;DHT22;13689;48.590;7.752;2023-07-13T05:02:55;22.50;52.70
25871;DHT22;13689;48.590;7.752;2023-07-13T05:05:21;22.50;52.60
25871;DHT22;13689;48.590;7.752;2023-07-13T05:07:47;22.40;52.40
25871;DHT22;13689;48.590;7.752;2023-07-13T05:10:12;22.50;52.40
25871;DHT22;13689;48.590;7.752;2023-07-13T05:12:38;22.50;52.20
25871;DHT22;13689;48.590;7.752;2023-07-13T05:15:04;22.60;52.10
25871;DHT22;13689;48.590;7.752;2023-07-13T05:17:29;22.60;51.90
25871;DHT22;13689;48.590;7.752;2023-07-13T05:19:55;22.60;51.70
25871;DHT22;13689;48.590;7.752;2023-07-13T05:22:21;22.70;51.60
25871;DHT22;13689;48.590;7.752;2023-07-13T05:24:46;22.70;51.50
25871;DHT22;13689;48.590;7.752;2023-07-13T05:27:12;22.80;51.30
25871;DHT22;13689;48.590;7.752;2023-07-13T05:29:38;22.90;51.20
25871;DHT22;13689;48.590;7.752;2023-07-13T05:32:04;23.00;50.90
25871;DHT22;13689;48.590;7.752;2023-07-13T05:34:29;23.10;50.70
25871;DHT22;13689;48.590;7.752;2023-07-13T05:36:55;23.10;50.40
25871;DHT22;13689;48.590;7.752;2023-07-13T05:39:21;23.30;50.10
25871;DHT22;13689;48.590;7.752;2023-07-13T05:41:46;23.50;49.80
25871;DHT22;13689;48.590;7.752;2023-07-13T05:44:12;23.60;49.40
25871;DHT22;13689;48.590;7.752;2023-07-13T05:46:37;23.60;49.10
25871;DHT22;13689;48.590;7.752;2023-07-13T05:49:03;23.70;48.80
25871;DHT22;13689;48.590;7.752;2023-07-13T05:51:29;23.70;48.60
25871;DHT22;13689;48.590;7.752;2023-07-13T05:53:54;23.80;48.50
25871;DHT22;13689;48.590;7.752;2023-07-13T05:56:20;23.70;48.30
25871;DHT22;13689;48.590;7.752;2023-07-13T05:58:47;23.60;48.30
25871;DHT22;13689;48.590;7.752;2023-07-13T06:01:14;23.80;48.30
25871;DHT22;13689;48.590;7.752;2023-07-13T06:03:40;23.90;48.10
25871;DHT22;13689;48.590;7.752;2023-07-13T06:06:08;23.90;48.00
25871;DHT22;13689;48.590;7.752;2023-07-13T06:08:34;23.90;47.90
25871;DHT22;13689;48.590;7.752;2023-07-13T06:11:10;23.90;47.80
25871;DHT22;13689;48.590;7.752;2023-07-13T06:13:37;24.00;47.60
25871;DHT22;13689;48.590;7.752;2023-07-13T06:16:03;24.20;47.30
25871;DHT22;13689;48.590;7.752;2023-07-13T06:18:31;24.40;47.00
25871;DHT22;13689;48.590;7.752;2023-07-13T06:20:57;24.60;46.60
25871;DHT22;13689;48.590;7.752;2023-07-13T06:23:23;24.80;46.40
25871;DHT22;13689;48.590;7.752;2023-07-13T06:25:49;25.00;46.10
25871;DHT22;13689;48.590;7.752;2023-07-13T06:28:14;25.10;45.70
25871;DHT22;13689;48.590;7.752;2023-07-13T06:30:40;25.30;45.50
25871;DHT22;13689;48.590;7.752;2023-07-13T06:33:05;25.40;45.40
25871;DHT22;13689;48.590;7.752;2023-07-13T06:35:31;25.50;45.20
25871;DHT22;13689;48.590;7.752;2023-07-13T06:37:57;25.50;44.90
25871;DHT22;13689;48.590;7.752;2023-07-13T06:40:22;25.60;44.80
25871;DHT22;13689;48.590;7.752;2023-07-13T06:42:48;25.70;44.50
25871;DHT22;13689;48.590;7.752;2023-07-13T06:45:14;25.70;44.10
25871;DHT22;13689;48.590;7.752;2023-07-13T06:47:39;25.70;43.80
25871;DHT22;13689;48.590;7.752;2023-07-13T06:50:05;25.80;43.70
25871;DHT22;13689;48.590;7.752;2023-07-13T06:52:31;26.00;43.40
25871;DHT22;13689;48.590;7.752;2023-07-13T06:54:56;26.20;43.30
25871;DHT22;13689;48.590;7.752;2023-07-13T06:57:22;26.40;43.00
25871;DHT22;13689;48.590;7.752;2023-07-13T06:59:48;26.50;42.60
25871;DHT22;13689;48.590;7.752;2023-07-13T07:02:13;26.50;42.30
25871;DHT22;13689;48.590;7.752;2023-07-13T07:04:39;26.60;42.10
25871;DHT22;13689;48.590;7.752;2023-07-13T07:07:04;26.80;41.90
25871;DHT22;13689;48.590;7.752;2023-07-13T07:09:30;26.80;41.60
25871;DHT22;13689;48.590;7.752;2023-07-13T07:11:57;26.80;41.50
25871;DHT22;13689;48.590;7.752;2023-07-13T07:14:22;27.00;41.50
25871;DHT22;13689;48.590;7.752;2023-07-13T07:16:49;27.20;41.30
25871;DHT22;13689;48.590;7.752;2023-07-13T07:19:15;27.30;41.00
25871;DHT22;13689;48.590;7.752;2023-07-13T07:21:41;27.40;40.70
25871;DHT22;13689;48.590;7.752;2023-07-13T07:24:06;27.60;40.40
25871;DHT22;13689;48.590;7.752;2023-07-13T07:26:34;27.70;40.00
25871;DHT22;13689;48.590;7.752;2023-07-13T07:28:59;27.90;39.60
25871;DHT22;13689;48.590;7.752;2023-07-13T07:31:25;27.90;39.00
25871;DHT22;13689;48.590;7.752;2023-07-13T07:33:51;27.80;39.10
25871;DHT22;13689;48.590;7.752;2023-07-13T07:36:17;27.80;38.40
25871;DHT22;13689;48.590;7.752;2023-07-13T07:38:43;28.00;38.20
25871;DHT22;13689;48.590;7.752;2023-07-13T07:41:09;28.10;37.90
25871;DHT22;13689;48.590;7.752;2023-07-13T07:43:35;28.20;37.70
25871;DHT22;13689;48.590;7.752;2023-07-13T07:46:00;28.40;37.50
25871;DHT22;13689;48.590;7.752;2023-07-13T07:48:26;28.60;37.20
25871;DHT22;13689;48.590;7.752;2023-07-13T07:50:52;28.70;36.90
25871;DHT22;13689;48.590;7.752;2023-07-13T07:53:17;28.80;36.80
25871;DHT22;13689;48.590;7.752;2023-07-13T07:55:43;28.90;36.50
25871;DHT22;13689;48.590;7.752;2023-07-13T07:58:08;28.90;36.10
25871;DHT22;13689;48.590;7.752;2023-07-13T08:00:34;29.00;35.80
25871;DHT22;13689;48.590;7.752;2023-07-13T08:03:00;29.20;35.50
25871;DHT22;13689;48.590;7.752;2023-07-13T08:05:26;29.30;35.20
25871;DHT22;13689;48.590;7.752;2023-07-13T08:07:52;29.40;35.00
25871;DHT22;13689;48.590;7.752;2023-07-13T08:10:18;29.50;34.90
25871;DHT22;13689;48.590;7.752;2023-07-13T08:12:43;29.60;35.30
25871;DHT22;13689;48.590;7.752;2023-07-13T08:15:12;29.90;34.50
25871;DHT22;13689;48.590;7.752;2023-07-13T08:17:39;30.10;34.20
25871;DHT22;13689;48.590;7.752;2023-07-13T08:20:05;30.20;34.10
25871;DHT22;13689;48.590;7.752;2023-07-13T08:22:31;30.20;33.80
25871;DHT22;13689;48.590;7.752;2023-07-13T08:24:56;30.30;33.80
25871;DHT22;13689;48.590;7.752;2023-07-13T08:27:23;30.50;33.80
25871;DHT22;13689;48.590;7.752;2023-07-13T08:29:50;30.70;33.40
25871;DHT22;13689;48.590;7.752;2023-07-13T08:32:16;30.80;33.20
25871;DHT22;13689;48.590;7.752;2023-07-13T08:34:41;31.10;33.00
25871;DHT22;13689;48.590;7.752;2023-07-13T08:37:07;31.40;32.80
25871;DHT22;13689;48.590;7.752;2023-07-13T08:39:33;31.50;32.30
25871;DHT22;13689;48.590;7.752;2023-07-13T08:42:35;31.70;32.00
25871;DHT22;13689;48.590;7.752;2023-07-13T08:45:24;31.90;31.60
25871;DHT22;13689;48.590;7.752;2023-07-13T08:47:52;32.10;31.20
25871;DHT22;13689;48.590;7.752;2023-07-13T08:50:23;32.30;31.00
25871;DHT22;13689;48.590;7.752;2023-07-13T08:52:50;32.50;30.60
25871;DHT22;13689;48.590;7.752;2023-07-13T08:55:28;32.80;30.40
25871;DHT22;13689;48.590;7.752;2023-07-13T08:58:05;33.10;30.00
25871;DHT22;13689;48.590;7.752;2023-07-13T09:01:06;33.40;29.80
25871;DHT22;13689;48.590;7.752;2023-07-13T09:03:36;33.90;29.30
25871;DHT22;13689;48.590;7.752;2023-07-13T09:06:03;34.30;28.80
25871;DHT22;13689;48.590;7.752;2023-07-13T09:08:42;34.70;28.40
25871;DHT22;13689;48.590;7.752;2023-07-13T09:13:54;35.00;27.50
25871;DHT22;13689;48.590;7.752;2023-07-13T09:16:22;34.50;27.60
25871;DHT22;13689;48.590;7.752;2023-07-13T09:18:50;34.30;27.80
25871;DHT22;13689;48.590;7.752;2023-07-13T09:21:26;34.10;27.90
25871;DHT22;13689;48.590;7.752;2023-07-13T09:23:56;34.30;27.90
25871;DHT22;13689;48.590;7.752;2023-07-13T09:26:24;34.30;27.90
25871;DHT22;13689;48.590;7.752;2023-07-13T09:29:04;33.40;27.90
25871;DHT22;13689;48.590;7.752;2023-07-13T09:31:42;32.70;28.30
25871;DHT22;13689;48.590;7.752;2023-07-13T09:34:12;32.10;29.00
25871;DHT22;13689;48.590;7.752;2023-07-13T09:36:38;31.50;29.40
25871;DHT22;13689;48.590;7.752;2023-07-13T09:39:25;31.00;29.80
25871;DHT22;13689;48.590;7.752;2023-07-13T09:44:37;29.90;32.20
25871;DHT22;13689;48.590;7.752;2023-07-13T09:47:18;29.60;33.20
25871;DHT22;13689;48.590;7.752;2023-07-13T09:49:45;29.40;34.40
25871;DHT22;13689;48.590;7.752;2023-07-13T09:52:14;29.80;34.40
25871;DHT22;13689;48.590;7.752;2023-07-13T09:54:45;29.70;34.50
25871;DHT22;13689;48.590;7.752;2023-07-13T09:57:16;30.00;34.70
25871;DHT22;13689;48.590;7.752;2023-07-13T09:59:48;29.50;34.80
25871;DHT22;13689;48.590;7.752;2023-07-13T10:04:56;28.80;35.90
25871;DHT22;13689;48.590;7.752;2023-07-13T10:07:23;28.50;36.50
25871;DHT22;13689;48.590;7.752;2023-07-13T10:09:53;28.50;36.70
25871;DHT22;13689;48.590;7.752;2023-07-13T10:12:20;28.50;36.60
25871;DHT22;13689;48.590;7.752;2023-07-13T10:14:46;28.50;36.50
25871;DHT22;13689;48.590;7.752;2023-07-13T10:17:14;28.80;36.40
25871;DHT22;13689;48.590;7.752;2023-07-13T10:19:41;29.50;36.00
25871;DHT22;13689;48.590;7.752;2023-07-13T10:22:28;30.60;35.30
25871;DHT22;13689;48.590;7.752;2023-07-13T10:24:55;31.80;33.90
25871;DHT22;13689;48.590;7.752;2023-07-13T10:27:33;32.90;32.90
25871;DHT22;13689;48.590;7.752;2023-07-13T10:30:21;33.20;31.50
25871;DHT22;13689;48.590;7.752;2023-07-13T10:32:49;33.20;31.20
25871;DHT22;13689;48.590;7.752;2023-07-13T10:35:16;32.90;31.50
25871;DHT22;13689;48.590;7.752;2023-07-13T10:38:07;33.70;30.90
25871;DHT22;13689;48.590;7.752;2023-07-13T10:40:42;34.50;30.20
25871;DHT22;13689;48.590;7.752;2023-07-13T10:43:27;33.00;30.00
25871;DHT22;13689;48.590;7.752;2023-07-13T10:45:54;31.80;31.30
25871;DHT22;13689;48.590;7.752;2023-07-13T10:48:21;30.70;32.30
25871;DHT22;13689;48.590;7.752;2023-07-13T10:50:51;30.20;33.30
25871;DHT22;13689;48.590;7.752;2023-07-13T10:53:31;29.90;33.80
25871;DHT22;13689;48.590;7.752;2023-07-13T10:56:03;29.50;34.10
25871;DHT22;13689;48.590;7.752;2023-07-13T10:58:39;28.90;34.80
25871;DHT22;13689;48.590;7.752;2023-07-13T11:01:11;28.70;35.20
25871;DHT22;13689;48.590;7.752;2023-07-13T11:06:12;28.90;35.10
25871;DHT22;13689;48.590;7.752;2023-07-13T11:18:46;29.90;33.90
25871;DHT22;13689;48.590;7.752;2023-07-13T11:21:18;29.70;33.80
25871;DHT22;13689;48.590;7.752;2023-07-13T11:23:52;29.30;34.00
25871;DHT22;13689;48.590;7.752;2023-07-13T11:29:53;29.50;34.40
25871;DHT22;13689;48.590;7.752;2023-07-13T11:32:01;29.50;33.80
25871;DHT22;13689;48.590;7.752;2023-07-13T11:34:36;29.60;33.50
25871;DHT22;13689;48.590;7.752;2023-07-13T11:37:02;29.70;33.20
25871;DHT22;13689;48.590;7.752;2023-07-13T11:39:36;29.60;32.80
25871;DHT22;13689;48.590;7.752;2023-07-13T11:42:06;29.60;32.60
25871;DHT22;13689;48.590;7.752;2023-07-13T11:44:34;29.50;32.40
25871;DHT22;13689;48.590;7.752;2023-07-13T11:47:08;29.40;32.20
25871;DHT22;13689;48.590;7.752;2023-07-13T11:49:44;29.30;32.40
25871;DHT22;13689;48.590;7.752;2023-07-13T11:52:19;29.30;32.60
25871;DHT22;13689;48.590;7.752;2023-07-13T11:54:52;29.30;32.50
25871;DHT22;13689;48.590;7.752;2023-07-13T11:57:32;29.30;32.40
25871;DHT22;13689;48.590;7.752;2023-07-13T12:00:03;29.30;32.30
25871;DHT22;13689;48.590;7.752;2023-07-13T12:02:42;29.30;32.20
25871;DHT22;13689;48.590;7.752;2023-07-13T12:05:14;29.20;32.20
25871;DHT22;13689;48.590;7.752;2023-07-13T12:07:41;29.20;32.10
25871;DHT22;13689;48.590;7.752;2023-07-13T12:10:20;29.20;32.20
25871;DHT22;13689;48.590;7.752;2023-07-13T12:15:13;29.30;32.00
25871;DHT22;13689;48.590;7.752;2023-07-13T12:17:41;29.30;32.00
25871;DHT22;13689;48.590;7.752;2023-07-13T12:20:40;29.30;32.10
25871;DHT22;13689;48.590;7.752;2023-07-13T12:22:58;29.30;32.10
25871;DHT22;13689;48.590;7.752;2023-07-13T12:25:26;29.10;32.00
25871;DHT22;13689;48.590;7.752;2023-07-13T12:27:52;28.90;32.10
25871;DHT22;13689;48.590;7.752;2023-07-13T12:30:25;28.80;32.10
25871;DHT22;13689;48.590;7.752;2023-07-13T12:33:07;28.80;32.30
25871;DHT22;13689;48.590;7.752;2023-07-13T12:35:49;28.90;32.10
25871;DHT22;13689;48.590;7.752;2023-07-13T12:38:17;29.00;31.90
25871;DHT22;13689;48.590;7.752;2023-07-13T12:40:43;29.20;31.70
25871;DHT22;13689;48.590;7.752;2023-07-13T12:43:13;29.20;31.50
25871;DHT22;13689;48.590;7.752;2023-07-13T12:45:39;29.10;31.50
25871;DHT22;13689;48.590;7.752;2023-07-13T12:48:20;28.90;31.70
25871;DHT22;13689;48.590;7.752;2023-07-13T12:50:48;28.90;31.80
25871;DHT22;13689;48.590;7.752;2023-07-13T12:53:20;28.90;31.70
25871;DHT22;13689;48.590;7.752;2023-07-13T12:55:49;29.00;31.60
25871;DHT22;13689;48.590;7.752;2023-07-13T12:58:26;29.00;31.50
25871;DHT22;13689;48.590;7.752;2023-07-13T13:00:54;28.90;31.40
25871;DHT22;13689;48.590;7.752;2023-07-13T13:06:28;28.90;31.50
25871;DHT22;13689;48.590;7.752;2023-07-13T13:08:57;28.90;31.30
25871;DHT22;13689;48.590;7.752;2023-07-13T13:11:28;29.00;31.10
25871;DHT22;13689;48.590;7.752;2023-07-13T13:13:55;29.20;30.90
25871;DHT22;13689;48.590;7.752;2023-07-13T13:16:23;29.30;30.60
25871;DHT22;13689;48.590;7.752;2023-07-13T13:18:51;29.40;30.40
25871;DHT22;13689;48.590;7.752;2023-07-13T13:21:17;29.50;30.40
25871;DHT22;13689;48.590;7.752;2023-07-13T13:23:43;29.50;30.30
25871;DHT22;13689;48.590;7.752;2023-07-13T13:26:13;29.50;30.40
25871;DHT22;13689;48.590;7.752;2023-07-13T13:28:41;29.70;30.40
25871;DHT22;13689;48.590;7.752;2023-07-13T13:31:08;29.70;30.30
25871;DHT22;13689;48.590;7.752;2023-07-13T13:33:38;29.80;30.20
25871;DHT22;13689;48.590;7.752;2023-07-13T13:36:13;29.80;30.10
25871;DHT22;13689;48.590;7.752;2023-07-13T13:38:39;29.90;30.00
25871;DHT22;13689;48.590;7.752;2023-07-13T13:41:05;29.90;29.80
25871;DHT22;13689;48.590;7.752;2023-07-13T13:43:32;29.80;29.70
25871;DHT22;13689;48.590;7.752;2023-07-13T13:45:58;29.50;29.70
25871;DHT22;13689;48.590;7.752;2023-07-13T13:48:34;29.40;30.00
25871;DHT22;13689;48.590;7.752;2023-07-13T13:51:06;29.30;30.00
25871;DHT22;13689;48.590;7.752;2023-07-13T13:53:37;29.30;30.10
25871;DHT22;13689;48.590;7.752;2023-07-13T13:56:04;29.40;30.20
25871;DHT22;13689;48.590;7.752;2023-07-13T13:58:30;29.50;30.10
25871;DHT22;13689;48.590;7.752;2023-07-13T14:00:56;29.50;30.20
25871;DHT22;13689;48.590;7.752;2023-07-13T14:03:24;29.50;30.20
25871;DHT22;13689;48.590;7.752;2023-07-13T14:05:50;29.50;30.10
25871;DHT22;13689;48.590;7.752;2023-07-13T14:08:18;29.60;30.20
25871;DHT22;13689;48.590;7.752;2023-07-13T14:10:52;29.70;30.40
25871;DHT22;13689;48.590;7.752;2023-07-13T14:13:22;29.70;30.40
25871;DHT22;13689;48.590;7.752;2023-07-13T14:15:52;29.70;30.40
25871;DHT22;13689;48.590;7.752;2023-07-13T14:18:18;29.60;30.50
25871;DHT22;13689;48.590;7.752;2023-07-13T14:20:48;29.60;30.60
25871;DHT22;13689;48.590;7.752;2023-07-13T14:23:15;29.60;30.70
25871;DHT22;13689;48.590;7.752;2023-07-13T14:25:41;29.60;30.80
25871;DHT22;13689;48.590;7.752;2023-07-13T14:28:24;29.60;31.00
25871;DHT22;13689;48.590;7.752;2023-07-13T14:30:51;29.60;31.10
25871;DHT22;13689;48.590;7.752;2023-07-13T14:33:16;29.60;31.10
25871;DHT22;13689;48.590;7.752;2023-07-13T14:35:42;29.60;31.10
25871;DHT22;13689;48.590;7.752;2023-07-13T14:38:18;29.60;31.60
25871;DHT22;13689;48.590;7.752;2023-07-13T14:40:45;29.60;31.10
25871;DHT22;13689;48.590;7.752;2023-07-13T14:43:13;29.70;31.00
25871;DHT22;13689;48.590;7.752;2023-07-13T14:45:50;29.60;30.90
25871;DHT22;13689;48.590;7.752;2023-07-13T14:50:44;29.60;31.00
25871;DHT22;13689;48.590;7.752;2023-07-13T14:53:10;29.60;30.90
25871;DHT22;13689;48.590;7.752;2023-07-13T14:55:37;29.50;31.00
25871;DHT22;13689;48.590;7.752;2023-07-13T14:58:03;29.40;31.20
25871;DHT22;13689;48.590;7.752;2023-07-13T15:00:28;29.30;31.40
25871;DHT22;13689;48.590;7.752;2023-07-13T15:02:57;29.30;31.60
25871;DHT22;13689;48.590;7.752;2023-07-13T15:05:27;29.20;31.70
25871;DHT22;13689;48.590;7.752;2023-07-13T15:07:56;29.30;31.60
25871;DHT22;13689;48.590;7.752;2023-07-13T15:10:30;29.40;31.60
25871;DHT22;13689;48.590;7.752;2023-07-13T15:13:01;29.50;31.50
25871;DHT22;13689;48.590;7.752;2023-07-13T15:15:37;29.50;31.20
25871;DHT22;13689;48.590;7.752;2023-07-13T15:18:04;29.50;31.70
25871;DHT22;13689;48.590;7.752;2023-07-13T15:20:33;29.50;31.10
25871;DHT22;13689;48.590;7.752;2023-07-13T15:23:01;29.30;31.00
25871;DHT22;13689;48.590;7.752;2023-07-13T15:25:29;29.30;31.00
25871;DHT22;13689;48.590;7.752;2023-07-13T15:27:57;29.30;31.10
25871;DHT22;13689;48.590;7.752;2023-07-13T15:30:26;29.40;31.10
25871;DHT22;13689;48.590;7.752;2023-07-13T15:32:53;29.50;31.10
25871;DHT22;13689;48.590;7.752;2023-07-13T15:35:21;29.50;31.10
25871;DHT22;13689;48.590;7.752;2023-07-13T15:37:50;29.50;31.10
25871;DHT22;13689;48.590;7.752;2023-07-13T15:40:16;29.50;31.10
25871;DHT22;13689;48.590;7.752;2023-07-13T15:42:42;29.40;31.20
25871;DHT22;13689;48.590;7.752;2023-07-13T15:45:16;29.30;31.30
25871;DHT22;13689;48.590;7.752;2023-07-13T15:47:43;29.30;31.40
25871;DHT22;13689;48.590;7.752;2023-07-13T15:50:21;29.30;31.50
25871;DHT22;13689;48.590;7.752;2023-07-13T15:52:55;29.20;31.60
25871;DHT22;13689;48.590;7.752;2023-07-13T15:55:23;29.10;31.80
25871;DHT22;13689;48.590;7.752;2023-07-13T15:57:51;29.00;32.10
25871;DHT22;13689;48.590;7.752;2023-07-13T16:00:23;28.90;32.70
25871;DHT22;13689;48.590;7.752;2023-07-13T16:02:50;28.80;32.90
25871;DHT22;13689;48.590;7.752;2023-07-13T16:05:17;28.80;33.30
25871;DHT22;13689;48.590;7.752;2023-07-13T16:07:45;28.80;32.70
25871;DHT22;13689;48.590;7.752;2023-07-13T16:10:15;28.80;32.80
25871;DHT22;13689;48.590;7.752;2023-07-13T16:12:41;28.80;32.80